sensor_id;sensor_type;location;lat;lon;timestamp;pressure;altitude;pressure_sealevel;temperature;humidity
41800;BME280;27468;47.460;19.034;2022-12-26T00:01:32;100970.31;;;9.67;83.32
41800;BME280;27468;47.460;19.034;2022-12-26T00:03:58;100960.69;;;9.64;82.87
41800;BME280;27468;47.460;19.034;2022-12-26T00:06:25;100965.94;;;9.67;83.21
41800;BME280;27468;47.460;19.034;2022-12-26T00:08:52;100926.66;;;9.32;82.52
41800;BME280;27468;47.460;19.034;2022-12-26T00:11:18;100970.41;;;9.54;82.72
41800;BME280;27468;47.460;19.034;2022-12-26T00:13:43;100970.44;;;9.50;82.53
41800;BME280;27468;47.460;19.034;2022-12-26T00:16:11;100962.59;;;9.41;82.74
41800;BME280;27468;47.460;19.034;2022-12-26T00:18:38;100964.38;;;9.36;82.96
41800;BME280;27468;47.460;19.034;2022-12-26T00:21:04;100966.94;;;9.45;82.50
41800;BME280;27468;47.460;19.034;2022-12-26T00:23:33;100960.84;;;9.35;82.64
41800;BME280;27468;47.460;19.034;2022-12-26T00:26:04;100969.63;;;9.37;82.76
41800;BME280;27468;47.460;19.034;2022-12-26T00:28:30;100964.41;;;9.26;82.86
41800;BME280;27468;47.460;19.034;2022-12-26T00:30:55;100966.13;;;9.32;82.62
41800;BME280;27468;47.460;19.034;2022-12-26T00:33:20;100943.44;;;9.17;82.83
41800;BME280;27468;47.460;19.034;2022-12-26T00:35:46;100952.09;;;9.32;82.39
41800;BME280;27468;47.460;19.034;2022-12-26T00:38:11;100956.53;;;9.26;82.56
41800;BME280;27468;47.460;19.034;2022-12-26T00:40:36;100927.72;;;9.04;82.79
41800;BME280;27468;47.460;19.034;2022-12-26T00:43:09;100965.38;;;9.12;83.14
41800;BME280;27468;47.460;19.034;2022-12-26T00:45:35;100964.56;;;9.01;83.75
41800;BME280;27468;47.460;19.034;2022-12-26T00:48:01;100960.19;;;8.92;83.55
41800;BME280;27468;47.460;19.034;2022-12-26T00:50:26;100938.31;;;8.82;83.58
41800;BME280;27468;47.460;19.034;2022-12-26T00:52:52;100968.94;;;9.00;83.58
41800;BME280;27468;47.460;19.034;2022-12-26T00:55:17;100922.59;;;8.70;83.70
41800;BME280;27468;47.460;19.034;2022-12-26T00:57:43;100970.72;;;8.89;84.37
41800;BME280;27468;47.460;19.034;2022-12-26T01:00:08;100936.66;;;8.65;84.78
41800;BME280;27468;47.460;19.034;2022-12-26T01:02:34;100983.88;;;8.90;84.52
41800;BME280;27468;47.460;19.034;2022-12-26T01:05:03;100953.31;;;8.65;85.07
41800;BME280;27468;47.460;19.034;2022-12-26T01:07:32;100940.19;;;8.57;85.50
41800;BME280;27468;47.460;19.034;2022-12-26T01:09:59;100954.13;;;8.73;85.07
41800;BME280;27468;47.460;19.034;2022-12-26T01:12:24;100956.75;;;8.75;85.21
41800;BME280;27468;47.460;19.034;2022-12-26T01:14:53;100957.63;;;8.80;84.97
41800;BME280;27468;47.460;19.034;2022-12-26T01:17:19;100959.38;;;8.78;85.08
41800;BME280;27468;47.460;19.034;2022-12-26T01:19:44;100944.56;;;8.62;85.56
41800;BME280;27468;47.460;19.034;2022-12-26T01:22:10;100957.66;;;8.69;85.15
41800;BME280;27468;47.460;19.034;2022-12-26T01:24:35;100964.63;;;8.76;84.90
41800;BME280;27468;47.460;19.034;2022-12-26T01:27:00;100962.88;;;8.80;84.60
41800;BME280;27468;47.460;19.034;2022-12-26T01:29:26;100927.91;;;8.58;84.97
41800;BME280;27468;47.460;19.034;2022-12-26T01:31:51;100948.06;;;8.64;85.47
41800;BME280;27468;47.460;19.034;2022-12-26T01:34:17;100949.75;;;8.68;85.38
41800;BME280;27468;47.460;19.034;2022-12-26T01:36:42;100941.88;;;8.72;84.99
41800;BME280;27468;47.460;19.034;2022-12-26T01:39:07;100950.63;;;8.73;85.03
41800;BME280;27468;47.460;19.034;2022-12-26T01:41:33;100945.38;;;8.73;84.86
41800;BME280;27468;47.460;19.034;2022-12-26T01:44:01;100944.50;;;8.71;84.97
41800;BME280;27468;47.460;19.034;2022-12-26T01:46:37;100939.31;;;8.57;85.42
41800;BME280;27468;47.460;19.034;2022-12-26T01:51:47;100943.69;;;8.58;85.78
41800;BME280;27468;47.460;19.034;2022-12-26T01:54:15;100901.66;;;8.32;85.63
41800;BME280;27468;47.460;19.034;2022-12-26T01:56:42;100918.31;;;8.48;85.44
41800;BME280;27468;47.460;19.034;2022-12-26T01:59:13;100926.19;;;8.51;85.15
41800;BME280;27468;47.460;19.034;2022-12-26T02:01:41;100911.31;;;8.38;85.24
41800;BME280;27468;47.460;19.034;2022-12-26T02:04:12;100878.94;;;8.17;85.07
41800;BME280;27468;47.460;19.034;2022-12-26T02:06:56;100935.84;;;8.41;84.92
41800;BME280;27468;47.460;19.034;2022-12-26T02:09:22;100927.09;;;8.35;85.11
41800;BME280;27468;47.460;19.034;2022-12-26T02:11:57;100885.09;;;8.06;85.41
41800;BME280;27468;47.460;19.034;2022-12-26T02:14:25;100924.44;;;8.19;85.79
41800;BME280;27468;47.460;19.034;2022-12-26T02:16:50;100921.84;;;8.12;85.88
41800;BME280;27468;47.460;19.034;2022-12-26T02:19:33;100922.72;;;8.09;85.81
41800;BME280;27468;47.460;19.034;2022-12-26T02:35:33;100937.63;;;7.74;88.23
41800;BME280;27468;47.460;19.034;2022-12-26T02:41:19;100915.75;;;7.70;87.95
41800;BME280;27468;47.460;19.034;2022-12-26T02:47:21;100903.50;;;7.66;87.32
41800;BME280;27468;47.460;19.034;2022-12-26T02:49:58;100882.50;;;7.58;87.71
41800;BME280;27468;47.460;19.034;2022-12-26T02:53:11;100868.50;;;7.55;87.27
41800;BME280;27468;47.460;19.034;2022-12-26T02:56:06;100873.78;;;7.50;87.05
41800;BME280;27468;47.460;19.034;2022-12-26T02:59:00;100896.50;;;7.47;86.86
41800;BME280;27468;47.460;19.034;2022-12-26T03:01:50;100905.25;;;7.40;87.80
41800;BME280;27468;47.460;19.034;2022-12-26T03:04:38;100885.09;;;7.26;88.67
41800;BME280;27468;47.460;19.034;2022-12-26T03:07:34;100879.84;;;7.26;88.44
41800;BME280;27468;47.460;19.034;2022-12-26T03:10:23;100881.59;;;7.27;88.10
41800;BME280;27468;47.460;19.034;2022-12-26T03:13:17;100888.59;;;7.25;87.87
41800;BME280;27468;47.460;19.034;2022-12-26T03:16:03;100906.94;;;7.21;88.36
41800;BME280;27468;47.460;19.034;2022-12-26T03:19:14;100899.06;;;7.12;89.09
41800;BME280;27468;47.460;19.034;2022-12-26T03:21:42;100885.94;;;7.12;88.59
41800;BME280;27468;47.460;19.034;2022-12-26T03:24:11;100875.44;;;7.03;89.31
41800;BME280;27468;47.460;19.034;2022-12-26T03:26:43;100837.78;;;6.66;90.29
41800;BME280;27468;47.460;19.034;2022-12-26T03:29:18;100898.13;;;6.88;90.95
41800;BME280;27468;47.460;19.034;2022-12-26T03:32:06;100904.22;;;6.80;91.42
41800;BME280;27468;47.460;19.034;2022-12-26T03:34:33;100891.09;;;6.78;91.00
41800;BME280;27468;47.460;19.034;2022-12-26T03:52:00;100892.75;;;6.53;91.64
41800;BME280;27468;47.460;19.034;2022-12-26T03:54:58;100898.00;;;6.56;91.89
41800;BME280;27468;47.460;19.034;2022-12-26T04:00:35;100864.69;;;6.28;91.16
41800;BME280;27468;47.460;19.034;2022-12-26T04:03:28;100840.16;;;6.11;91.66
41800;BME280;27468;47.460;19.034;2022-12-26T04:06:21;100893.53;;;6.37;91.86
41800;BME280;27468;47.460;19.034;2022-12-26T04:09:12;100896.16;;;6.33;91.85
41800;BME280;27468;47.460;19.034;2022-12-26T04:11:59;100890.84;;;6.20;92.24
41800;BME280;27468;47.460;19.034;2022-12-26T04:14:56;100866.25;;;6.00;92.69
41800;BME280;27468;47.460;19.034;2022-12-26T04:18:03;100938.94;;;6.35;93.48
41800;BME280;27468;47.460;19.034;2022-12-26T04:21:03;100914.44;;;6.25;93.90
41800;BME280;27468;47.460;19.034;2022-12-26T04:23:39;100935.44;;;6.33;94.10
41800;BME280;27468;47.460;19.034;2022-12-26T04:26:53;100928.44;;;6.33;93.81
41800;BME280;27468;47.460;19.034;2022-12-26T04:29:39;100932.75;;;6.23;94.96
41800;BME280;27468;47.460;19.034;2022-12-26T04:32:37;100924.03;;;6.24;94.89
41800;BME280;27468;47.460;19.034;2022-12-26T04:38:20;100923.06;;;6.13;95.87
41800;BME280;27468;47.460;19.034;2022-12-26T04:41:06;100911.66;;;6.04;95.87
41800;BME280;27468;47.460;19.034;2022-12-26T04:43:53;100927.47;;;6.19;95.42
41800;BME280;27468;47.460;19.034;2022-12-26T04:46:38;100881.81;;;5.85;95.50
41800;BME280;27468;47.460;19.034;2022-12-26T04:49:09;100927.44;;;6.14;95.62
41800;BME280;27468;47.460;19.034;2022-12-26T04:51:55;100889.75;;;5.92;95.92
41800;BME280;27468;47.460;19.034;2022-12-26T04:54:21;100891.53;;;5.96;95.77
41800;BME280;27468;47.460;19.034;2022-12-26T04:56:46;100914.31;;;6.08;95.43
41800;BME280;27468;47.460;19.034;2022-12-26T04:59:12;100855.59;;;5.71;95.66
41800;BME280;27468;47.460;19.034;2022-12-26T05:01:38;100902.00;;;5.95;95.49
41800;BME280;27468;47.460;19.034;2022-12-26T05:04:22;100936.06;;;6.00;95.03
41800;BME280;27468;47.460;19.034;2022-12-26T05:07:14;100910.69;;;5.92;95.29
41800;BME280;27468;47.460;19.034;2022-12-26T05:09:59;100897.53;;;5.85;94.84
41800;BME280;27468;47.460;19.034;2022-12-26T05:12:25;100914.13;;;5.88;94.21
41800;BME280;27468;47.460;19.034;2022-12-26T05:14:50;100865.91;;;5.56;94.40
41800;BME280;27468;47.460;19.034;2022-12-26T05:17:15;100879.91;;;5.59;94.40
41800;BME280;27468;47.460;19.034;2022-12-26T05:19:59;100925.38;;;5.80;94.58
41800;BME280;27468;47.460;19.034;2022-12-26T05:22:46;100907.94;;;5.74;94.16
41800;BME280;27468;47.460;19.034;2022-12-26T05:25:34;100901.75;;;5.66;94.90
41800;BME280;27468;47.460;19.034;2022-12-26T05:28:20;100892.16;;;5.67;94.63
41800;BME280;27468;47.460;19.034;2022-12-26T05:31:04;100869.38;;;5.52;94.94
41800;BME280;27468;47.460;19.034;2022-12-26T05:33:30;100905.25;;;5.65;95.13
41800;BME280;27468;47.460;19.034;2022-12-26T05:36:16;100892.16;;;5.67;94.73
41800;BME280;27468;47.460;19.034;2022-12-26T05:38:43;100906.19;;;5.75;94.64
41800;BME280;27468;47.460;19.034;2022-12-26T05:41:08;100898.34;;;5.76;94.68
41800;BME280;27468;47.460;19.034;2022-12-26T05:43:33;100890.50;;;5.76;94.60
41800;BME280;27468;47.460;19.034;2022-12-26T05:45:59;100848.47;;;5.55;94.10
41800;BME280;27468;47.460;19.034;2022-12-26T05:48:24;100895.78;;;5.84;94.35
41800;BME280;27468;47.460;19.034;2022-12-26T05:50:50;100871.25;;;5.68;94.52
41800;BME280;27468;47.460;19.034;2022-12-26T05:53:15;100834.44;;;5.44;95.04
41800;BME280;27468;47.460;19.034;2022-12-26T05:55:41;100902.72;;;5.82;95.15
41800;BME280;27468;47.460;19.034;2022-12-26T05:58:06;100904.47;;;5.81;94.85
41800;BME280;27468;47.460;19.034;2022-12-26T06:00:32;100887.84;;;5.70;94.64
41800;BME280;27468;47.460;19.034;2022-12-26T06:02:58;100915.88;;;5.88;94.44
41800;BME280;27468;47.460;19.034;2022-12-26T06:05:24;100907.06;;;5.78;94.28
41800;BME280;27468;47.460;19.034;2022-12-26T06:07:50;100875.56;;;5.63;94.52
41800;BME280;27468;47.460;19.034;2022-12-26T06:10:15;100901.00;;;5.82;94.37
41800;BME280;27468;47.460;19.034;2022-12-26T06:12:41;100851.88;;;5.46;94.94
41800;BME280;27468;47.460;19.034;2022-12-26T06:15:06;100904.47;;;5.80;94.87
41800;BME280;27468;47.460;19.034;2022-12-26T06:17:32;100891.38;;;5.80;94.51
41800;BME280;27468;47.460;19.034;2022-12-26T06:19:58;100829.25;;;5.50;94.52
41800;BME280;27468;47.460;19.034;2022-12-26T06:22:23;100882.63;;;5.78;94.09
41800;BME280;27468;47.460;19.034;2022-12-26T06:24:48;100877.38;;;5.72;93.83
41800;BME280;27468;47.460;19.034;2022-12-26T06:27:14;100866.00;;;5.65;94.01
41800;BME280;27468;47.460;19.034;2022-12-26T06:29:39;100845.78;;;5.47;93.78
41800;BME280;27468;47.460;19.034;2022-12-26T06:32:05;100876.38;;;5.56;93.87
41800;BME280;27468;47.460;19.034;2022-12-26T06:34:30;100869.41;;;5.56;93.50
41800;BME280;27468;47.460;19.034;2022-12-26T06:36:55;100883.38;;;5.58;93.40
41800;BME280;27468;47.460;19.034;2022-12-26T06:39:22;100886.03;;;5.61;93.39
41800;BME280;27468;47.460;19.034;2022-12-26T06:41:47;100893.94;;;5.71;93.31
41800;BME280;27468;47.460;19.034;2022-12-26T06:44:13;100879.03;;;5.59;93.67
41800;BME280;27468;47.460;19.034;2022-12-26T06:46:38;100877.31;;;5.64;93.50
41800;BME280;27468;47.460;19.034;2022-12-26T06:49:04;100887.88;;;5.75;93.68
41800;BME280;27468;47.460;19.034;2022-12-26T06:51:32;100816.06;;;5.35;93.59
41800;BME280;27468;47.460;19.034;2022-12-26T06:54:00;100847.63;;;5.59;93.39
41800;BME280;27468;47.460;19.034;2022-12-26T06:56:30;100888.78;;;5.84;93.44
41800;BME280;27468;47.460;19.034;2022-12-26T06:58:58;100870.44;;;5.78;93.29
41800;BME280;27468;47.460;19.034;2022-12-26T07:01:26;100828.47;;;5.60;93.26
41800;BME280;27468;47.460;19.034;2022-12-26T07:03:52;100878.41;;;5.89;93.43
41800;BME280;27468;47.460;19.034;2022-12-26T07:06:29;100891.53;;;5.95;93.10
41800;BME280;27468;47.460;19.034;2022-12-26T07:08:58;100873.09;;;5.84;93.10
41800;BME280;27468;47.460;19.034;2022-12-26T07:11:27;100849.47;;;5.69;92.98
41800;BME280;27468;47.460;19.034;2022-12-26T07:13:53;100893.22;;;5.90;93.22
41800;BME280;27468;47.460;19.034;2022-12-26T07:16:20;100910.78;;;6.02;93.40
41800;BME280;27468;47.460;19.034;2022-12-26T07:18:45;100907.25;;;6.00;93.39
41800;BME280;27468;47.460;19.034;2022-12-26T07:21:14;100902.88;;;5.97;93.45
41800;BME280;27468;47.460;19.034;2022-12-26T07:23:40;100900.31;;;6.02;93.43
41800;BME280;27468;47.460;19.034;2022-12-26T07:26:05;100928.31;;;6.15;93.84
41800;BME280;27468;47.460;19.034;2022-12-26T07:28:31;100863.50;;;5.85;93.55
41800;BME280;27468;47.460;19.034;2022-12-26T07:30:57;100916.13;;;6.20;93.74
41800;BME280;27468;47.460;19.034;2022-12-26T07:33:25;100916.13;;;6.18;93.82
41800;BME280;27468;47.460;19.034;2022-12-26T07:35:50;100916.13;;;6.20;93.70
41800;BME280;27468;47.460;19.034;2022-12-26T07:38:16;100924.03;;;6.26;93.74
41800;BME280;27468;47.460;19.034;2022-12-26T07:40:42;100923.16;;;6.27;94.39
41800;BME280;27468;47.460;19.034;2022-12-26T07:43:07;100839.94;;;5.83;94.46
41800;BME280;27468;47.460;19.034;2022-12-26T07:45:32;100862.81;;;6.04;94.06
41800;BME280;27468;47.460;19.034;2022-12-26T07:47:58;100910.13;;;6.33;94.63
41800;BME280;27468;47.460;19.034;2022-12-26T07:50:25;100925.00;;;6.46;95.04
41800;BME280;27468;47.460;19.034;2022-12-26T07:52:52;100884.78;;;6.29;94.61
41800;BME280;27468;47.460;19.034;2022-12-26T07:55:17;100922.44;;;6.58;94.69
41800;BME280;27468;47.460;19.034;2022-12-26T07:57:43;100932.09;;;6.66;94.78
41800;BME280;27468;47.460;19.034;2022-12-26T08:00:09;100898.78;;;6.40;95.21
41800;BME280;27468;47.460;19.034;2022-12-26T08:02:34;100921.53;;;6.50;95.68
41800;BME280;27468;47.460;19.034;2022-12-26T08:05:00;100890.09;;;6.52;95.53
41800;BME280;27468;47.460;19.034;2022-12-26T08:07:25;100938.31;;;6.86;95.39
41800;BME280;27468;47.460;19.034;2022-12-26T08:09:51;100926.06;;;6.85;95.20
41800;BME280;27468;47.460;19.034;2022-12-26T08:12:16;100922.59;;;6.89;95.39
41800;BME280;27468;47.460;19.034;2022-12-26T08:14:46;100932.22;;;7.02;95.33
41800;BME280;27468;47.460;19.034;2022-12-26T08:17:11;100934.88;;;7.05;95.24
41800;BME280;27468;47.460;19.034;2022-12-26T08:19:37;100931.38;;;7.11;95.14
41800;BME280;27468;47.460;19.034;2022-12-26T08:22:02;100915.63;;;7.05;95.36
41800;BME280;27468;47.460;19.034;2022-12-26T08:24:27;100927.03;;;7.17;95.27
41800;BME280;27468;47.460;19.034;2022-12-26T08:26:53;100949.81;;;7.31;94.96
41800;BME280;27468;47.460;19.034;2022-12-26T08:29:18;100954.19;;;7.38;95.24
41800;BME280;27468;47.460;19.034;2022-12-26T08:31:44;100962.09;;;7.45;95.25
41800;BME280;27468;47.460;19.034;2022-12-26T08:34:09;100918.34;;;7.32;94.80
41800;BME280;27468;47.460;19.034;2022-12-26T08:36:34;100951.56;;;7.53;95.01
41800;BME280;27468;47.460;19.034;2022-12-26T08:39:00;100951.56;;;7.51;94.33
41800;BME280;27468;47.460;19.034;2022-12-26T08:41:25;100899.09;;;7.35;94.76
41800;BME280;27468;47.460;19.034;2022-12-26T08:43:52;100956.00;;;7.74;94.05
41800;BME280;27468;47.460;19.034;2022-12-26T08:46:19;100949.00;;;7.82;94.37
41800;BME280;27468;47.460;19.034;2022-12-26T08:48:45;100954.25;;;7.89;93.80
41800;BME280;27468;47.460;19.034;2022-12-26T08:51:16;100961.25;;;7.98;93.64
41800;BME280;27468;47.460;19.034;2022-12-26T08:53:43;100935.88;;;7.95;93.74
41800;BME280;27468;47.460;19.034;2022-12-26T08:56:12;100954.22;;;8.11;93.24
41800;BME280;27468;47.460;19.034;2022-12-26T08:58:38;100953.34;;;8.10;93.18
41800;BME280;27468;47.460;19.034;2022-12-26T09:01:15;100963.84;;;8.15;92.50
41800;BME280;27468;47.460;19.034;2022-12-26T09:03:41;100943.75;;;8.06;92.06
41800;BME280;27468;47.460;19.034;2022-12-26T09:06:08;100941.09;;;8.20;91.82
41800;BME280;27468;47.460;19.034;2022-12-26T09:08:35;100900.88;;;8.01;91.35
41800;BME280;27468;47.460;19.034;2022-12-26T09:11:05;100952.50;;;8.36;91.26
41800;BME280;27468;47.460;19.034;2022-12-26T09:13:32;100920.09;;;8.14;90.40
41800;BME280;27468;47.460;19.034;2022-12-26T09:16:18;100954.22;;;8.41;90.18
41800;BME280;27468;47.460;19.034;2022-12-26T09:18:44;100963.84;;;8.57;89.99
41800;BME280;27468;47.460;19.034;2022-12-26T09:21:11;100965.59;;;8.62;88.78
41800;BME280;27468;47.460;19.034;2022-12-26T09:23:38;100948.06;;;8.57;88.28
41800;BME280;27468;47.460;19.034;2022-12-26T09:26:07;100961.13;;;8.71;88.14
41800;BME280;27468;47.460;19.034;2022-12-26T09:28:34;100913.91;;;8.51;87.90
41800;BME280;27468;47.460;19.034;2022-12-26T09:31:11;100959.34;;;8.90;87.71
41800;BME280;27468;47.460;19.034;2022-12-26T09:33:37;100964.63;;;8.84;87.12
41800;BME280;27468;47.460;19.034;2022-12-26T09:36:09;100936.56;;;8.83;86.87
41800;BME280;27468;47.460;19.034;2022-12-26T09:38:35;100971.53;;;9.08;86.58
41800;BME280;27468;47.460;19.034;2022-12-26T09:44:02;100918.16;;;8.87;85.16
41800;BME280;27468;47.460;19.034;2022-12-26T09:49:20;100926.00;;;8.95;84.74
41800;BME280;27468;47.460;19.034;2022-12-26T09:51:49;100964.50;;;9.17;84.59
41800;BME280;27468;47.460;19.034;2022-12-26T09:54:46;100960.09;;;9.19;84.73
41800;BME280;27468;47.460;19.034;2022-12-26T09:57:19;100938.25;;;9.04;84.86
41800;BME280;27468;47.460;19.034;2022-12-26T09:59:56;100919.84;;;8.98;84.98
41800;BME280;27468;47.460;19.034;2022-12-26T10:02:24;100957.34;;;9.33;84.80
41800;BME280;27468;47.460;19.034;2022-12-26T10:04:51;100915.44;;;9.07;84.72
41800;BME280;27468;47.460;19.034;2022-12-26T10:28:27;100956.38;;;9.52;84.21
41800;BME280;27468;47.460;19.034;2022-12-26T10:30:57;100931.84;;;9.46;84.30
41800;BME280;27468;47.460;19.034;2022-12-26T10:33:55;100884.56;;;9.31;83.82
41800;BME280;27468;47.460;19.034;2022-12-26T10:36:31;100911.66;;;9.48;83.82
41800;BME280;27468;47.460;19.034;2022-12-26T10:38:59;100898.47;;;9.51;83.59
41800;BME280;27468;47.460;19.034;2022-12-26T10:41:33;100853.91;;;9.26;83.38
41800;BME280;27468;47.460;19.034;2022-12-26T10:44:00;100911.59;;;9.55;83.35
41800;BME280;27468;47.460;19.034;2022-12-26T10:46:40;100867.06;;;9.25;83.22
41800;BME280;27468;47.460;19.034;2022-12-26T10:49:12;100890.63;;;9.45;83.24
41800;BME280;27468;47.460;19.034;2022-12-26T10:51:40;100907.25;;;9.50;83.11
41800;BME280;27468;47.460;19.034;2022-12-26T10:54:13;100904.63;;;9.48;82.91
41800;BME280;27468;47.460;19.034;2022-12-26T10:56:42;100880.09;;;9.43;83.05
41800;BME280;27468;47.460;19.034;2022-12-26T10:59:15;100897.59;;;9.50;83.01
41800;BME280;27468;47.460;19.034;2022-12-26T11:01:41;100836.44;;;9.21;83.17
41800;BME280;27468;47.460;19.034;2022-12-26T11:04:20;100875.69;;;9.50;83.21
41800;BME280;27468;47.460;19.034;2022-12-26T11:06:48;100870.47;;;9.42;83.41
41800;BME280;27468;47.460;19.034;2022-12-26T11:09:38;100878.38;;;9.41;83.58
41800;BME280;27468;47.460;19.034;2022-12-26T11:12:05;100831.22;;;9.13;83.70
41800;BME280;27468;47.460;19.034;2022-12-26T11:14:43;100856.47;;;9.37;83.74
41800;BME280;27468;47.460;19.034;2022-12-26T11:17:24;100827.69;;;9.19;83.71
41800;BME280;27468;47.460;19.034;2022-12-26T11:22:33;100846.88;;;9.27;83.86
41800;BME280;27468;47.460;19.034;2022-12-26T11:27:34;100806.72;;;9.08;83.74
41800;BME280;27468;47.460;19.034;2022-12-26T11:30:18;100858.16;;;9.46;83.94
41800;BME280;27468;47.460;19.034;2022-12-26T11:32:47;100825.09;;;9.14;83.73
41800;BME280;27468;47.460;19.034;2022-12-26T11:35:21;100848.59;;;9.36;83.74
41800;BME280;27468;47.460;19.034;2022-12-26T11:37:53;100866.00;;;9.55;83.65
41800;BME280;27468;47.460;19.034;2022-12-26T11:40:33;100875.56;;;9.64;83.26
41800;BME280;27468;47.460;19.034;2022-12-26T11:43:02;100865.06;;;9.60;83.41
41800;BME280;27468;47.460;19.034;2022-12-26T11:45:29;100861.59;;;9.55;83.17
41800;BME280;27468;47.460;19.034;2022-12-26T11:47:59;100826.63;;;9.41;83.19
41800;BME280;27468;47.460;19.034;2022-12-26T11:50:26;100858.81;;;9.74;83.08
41800;BME280;27468;47.460;19.034;2022-12-26T12:00:32;100862.03;;;10.03;81.70
41800;BME280;27468;47.460;19.034;2022-12-26T12:02:58;100849.72;;;10.05;81.14
41800;BME280;27468;47.460;19.034;2022-12-26T12:21:53;100843.28;;;10.35;80.08
41800;BME280;27468;47.460;19.034;2022-12-26T12:27:27;100815.38;;;10.14;80.38
41800;BME280;27468;47.460;19.034;2022-12-26T12:30:19;100841.50;;;10.39;80.27
41800;BME280;27468;47.460;19.034;2022-12-26T12:33:04;100835.28;;;10.41;80.66
41800;BME280;27468;47.460;19.034;2022-12-26T12:38:30;100847.69;;;10.33;80.26
41800;BME280;27468;47.460;19.034;2022-12-26T12:41:05;100828.38;;;10.33;80.34
41800;BME280;27468;47.460;19.034;2022-12-26T12:51:40;100828.47;;;10.25;80.59
41800;BME280;27468;47.460;19.034;2022-12-26T12:54:15;100825.78;;;10.28;80.81
41800;BME280;27468;47.460;19.034;2022-12-26T13:00:09;100809.78;;;10.42;80.66
41800;BME280;27468;47.460;19.034;2022-12-26T13:02:59;100808.03;;;10.41;80.32
41800;BME280;27468;47.460;19.034;2022-12-26T13:05:41;100780.34;;;10.05;80.82
41800;BME280;27468;47.460;19.034;2022-12-26T13:10:50;100796.75;;;10.34;80.93
41800;BME280;27468;47.460;19.034;2022-12-26T13:13:23;100802.88;;;10.36;80.85
41800;BME280;27468;47.460;19.034;2022-12-26T13:15:55;100803.63;;;10.43;80.71
41800;BME280;27468;47.460;19.034;2022-12-26T13:18:24;100769.66;;;10.21;80.85
41800;BME280;27468;47.460;19.034;2022-12-26T13:21:04;100795.09;;;10.25;81.12
41800;BME280;27468;47.460;19.034;2022-12-26T13:23:41;100766.22;;;10.12;81.01
41800;BME280;27468;47.460;19.034;2022-12-26T13:26:37;100814.31;;;10.34;81.15
41800;BME280;27468;47.460;19.034;2022-12-26T13:29:15;100826.63;;;10.32;81.23
41800;BME280;27468;47.460;19.034;2022-12-26T13:31:43;100807.44;;;10.20;81.27
41800;BME280;27468;47.460;19.034;2022-12-26T13:34:19;100818.88;;;10.15;81.58
41800;BME280;27468;47.460;19.034;2022-12-26T13:36:50;100797.91;;;10.06;81.70
41800;BME280;27468;47.460;19.034;2022-12-26T13:39:28;100815.38;;;10.14;81.91
41800;BME280;27468;47.460;19.034;2022-12-26T13:44:45;100774.53;;;9.77;82.87
41800;BME280;27468;47.460;19.034;2022-12-26T13:47:36;100823.44;;;9.99;83.15
41800;BME280;27468;47.460;19.034;2022-12-26T13:53:29;100822.56;;;9.97;83.20
41800;BME280;27468;47.460;19.034;2022-12-26T13:59:11;100817.50;;;9.82;83.74
41800;BME280;27468;47.460;19.034;2022-12-26T14:07:45;100819.38;;;9.68;84.10
41800;BME280;27468;47.460;19.034;2022-12-26T14:16:08;100834.31;;;9.64;84.64
41800;BME280;27468;47.460;19.034;2022-12-26T14:30:18;100831.84;;;9.47;85.36
41800;BME280;27468;47.460;19.034;2022-12-26T14:35:27;100829.28;;;9.37;85.48
41800;BME280;27468;47.460;19.034;2022-12-26T14:43:30;100841.84;;;8.98;87.13
41800;BME280;27468;47.460;19.034;2022-12-26T14:45:56;100844.44;;;9.06;86.41
41800;BME280;27468;47.460;19.034;2022-12-26T14:48:38;100847.94;;;9.03;85.88
41800;BME280;27468;47.460;19.034;2022-12-26T14:53:32;100851.50;;;8.91;86.59
41800;BME280;27468;47.460;19.034;2022-12-26T14:56:33;100846.31;;;8.78;87.41
41800;BME280;27468;47.460;19.034;2022-12-26T14:59:38;100842.88;;;8.67;87.84
41800;BME280;27468;47.460;19.034;2022-12-26T15:02:29;100832.41;;;8.59;88.41
41800;BME280;27468;47.460;19.034;2022-12-26T15:05:13;100778.22;;;8.24;88.43
41800;BME280;27468;47.460;19.034;2022-12-26T15:16:06;100794.06;;;8.08;89.29
41800;BME280;27468;47.460;19.034;2022-12-26T15:19:21;100843.03;;;8.33;89.13
41800;BME280;27468;47.460;19.034;2022-12-26T15:32:55;100809.78;;;8.09;90.26
41800;BME280;27468;47.460;19.034;2022-12-26T15:35:32;100815.88;;;8.19;89.49
41800;BME280;27468;47.460;19.034;2022-12-26T15:44:01;100818.59;;;8.07;89.03
41800;BME280;27468;47.460;19.034;2022-12-26T15:46:32;100821.22;;;8.01;88.82
41800;BME280;27468;47.460;19.034;2022-12-26T16:00:19;100762.72;;;7.41;89.39
41800;BME280;27468;47.460;19.034;2022-12-26T16:03:25;100765.34;;;7.36;89.59
41800;BME280;27468;47.460;19.034;2022-12-26T16:05:59;100807.28;;;7.51;89.82
41800;BME280;27468;47.460;19.034;2022-12-26T16:08:53;100813.44;;;7.49;90.41
41800;BME280;27468;47.460;19.034;2022-12-26T16:11:26;100816.91;;;7.52;89.97
41800;BME280;27468;47.460;19.034;2022-12-26T16:18:51;100752.22;;;7.09;90.71
41800;BME280;27468;47.460;19.034;2022-12-26T16:21:18;100802.06;;;7.30;90.93
41800;BME280;27468;47.460;19.034;2022-12-26T16:24:06;100756.59;;;7.01;90.72
41800;BME280;27468;47.460;19.034;2022-12-26T16:26:38;100793.31;;;7.23;90.72
41800;BME280;27468;47.460;19.034;2022-12-26T16:29:04;100799.44;;;7.32;90.48
41800;BME280;27468;47.460;19.034;2022-12-26T16:31:30;100799.44;;;7.25;90.14
41800;BME280;27468;47.460;19.034;2022-12-26T16:33:56;100788.06;;;7.13;90.76
41800;BME280;27468;47.460;19.034;2022-12-26T16:36:27;100806.41;;;7.16;91.22
41800;BME280;27468;47.460;19.034;2022-12-26T16:38:53;100751.34;;;6.81;90.68
41800;BME280;27468;47.460;19.034;2022-12-26T16:43:48;100801.16;;;7.07;91.43
41800;BME280;27468;47.460;19.034;2022-12-26T16:46:15;100788.94;;;6.90;91.84